Station Historical Data
Daily Summary for January 5, 2017 Units:  Both    English   Metric
« Previous Day
Next Day »
Daily Weekly Monthly Yearly Custom
  High: Low: Average:
Temperature: 21.1 °F /  -6.1 °C 13.7 °F /  -10.2 °C 18.1 °F /  -7.7 °C
Dew Point: 16.0 °F /  -8.9 °C 5.8 °F /  -14.6 °C 10.6 °F /  -11.9 °C
Humidity: 89% 59% 73%
Wind Speed: 17.0mph /  27.4km/h - 6.3mph /  10.1km/h
Wind Gust: 25.0mph /  40.2km/h - -
Wind- - West
Pressure: 30.01 in /  1016.1 hPa 29.78 in /  1008.4 hPa -
Precipitation: 0.00 in /  0 mm    
Historical Graphs
 
 
Tabular Data for January 5, 2017
Time Temperature Dew Point Pressure Wind Wind Speed Wind Gust Humidity Rainfall Rate (Hourly)
00:04 18.8 °F /  -7.3 °C 8.3 °F /  -13.2 °C 29.78in /  1008.4hPa West 11.0mph /  17.7km/h 25.0mph /  40.2km/h 63% 0.00in /  0mm
00:09 18.8 °F /  -7.3 °C 8.6 °F /  -13 °C 29.79in /  1008.7hPa West 10.0mph /  16.1km/h 25.0mph /  40.2km/h 64% 0.00in /  0mm
00:14 18.8 °F /  -7.3 °C 8.3 °F /  -13.2 °C 29.78in /  1008.4hPa WNW 8.0mph /  12.9km/h 23.0mph /  37km/h 63% 0.00in /  0mm
00:19 18.8 °F /  -7.3 °C 9.0 °F /  -12.8 °C 29.79in /  1008.7hPa NW 7.0mph /  11.3km/h 21.0mph /  33.8km/h 65% 0.00in /  0mm
00:24 18.4 °F /  -7.6 °C 10.2 °F /  -12.1 °C 29.79in /  1008.7hPa WNW 11.0mph /  17.7km/h 21.0mph /  33.8km/h 70% 0.00in /  0mm
00:29 18.0 °F /  -7.8 °C 10.2 °F /  -12.1 °C 29.80in /  1009hPa West 11.0mph /  17.7km/h 18.0mph /  29km/h 71% 0.00in /  0mm
00:34 17.7 °F /  -7.9 °C 10.5 °F /  -11.9 °C 29.79in /  1008.7hPa WNW 16.0mph /  25.7km/h 21.0mph /  33.8km/h 73% 0.00in /  0mm
00:39 17.4 °F /  -8.1 °C 10.5 °F /  -11.9 °C 29.80in /  1009hPa West 7.0mph /  11.3km/h 18.0mph /  29km/h 74% 0.00in /  0mm
00:44 17.3 °F /  -8.2 °C 9.8 °F /  -12.3 °C 29.80in /  1009hPa NW 8.0mph /  12.9km/h 19.0mph /  30.6km/h 72% 0.00in /  0mm
00:49 17.2 °F /  -8.2 °C 8.4 °F /  -13.1 °C 29.80in /  1009hPa West 10.0mph /  16.1km/h 18.0mph /  29km/h 68% 0.00in /  0mm
00:54 17.2 °F /  -8.2 °C 7.4 °F /  -13.7 °C 29.80in /  1009hPa West 4.0mph /  6.4km/h 16.0mph /  25.7km/h 65% 0.00in /  0mm
00:59 17.1 °F /  -8.3 °C 7.0 °F /  -13.9 °C 29.80in /  1009hPa West 8.0mph /  12.9km/h 16.0mph /  25.7km/h 64% 0.00in /  0mm
01:04 17.1 °F /  -8.3 °C 6.3 °F /  -14.3 °C 29.80in /  1009hPa West 13.0mph /  20.9km/h 20.0mph /  32.2km/h 62% 0.00in /  0mm
01:09 17.1 °F /  -8.3 °C 6.3 °F /  -14.3 °C 29.80in /  1009hPa West 11.0mph /  17.7km/h 19.0mph /  30.6km/h 62% 0.00in /  0mm
01:19 17.3 °F /  -8.2 °C 6.1 °F /  -14.4 °C 29.80in /  1009hPa WSW 10.0mph /  16.1km/h 25.0mph /  40.2km/h 61% 0.00in /  0mm
01:24 17.3 °F /  -8.2 °C 6.1 °F /  -14.4 °C 29.81in /  1009.4hPa West 9.0mph /  14.5km/h 17.0mph /  27.4km/h 61% 0.00in /  0mm
01:29 17.4 °F /  -8.1 °C 5.9 °F /  -14.5 °C 29.81in /  1009.4hPa WSW 8.0mph /  12.9km/h 17.0mph /  27.4km/h 60% 0.00in /  0mm
01:34 17.3 °F /  -8.2 °C 5.8 °F /  -14.6 °C 29.81in /  1009.4hPa West 8.0mph /  12.9km/h 17.0mph /  27.4km/h 60% 0.00in /  0mm
01:39 17.4 °F /  -8.1 °C 5.9 °F /  -14.5 °C 29.81in /  1009.4hPa SSW 5.0mph /  8km/h 19.0mph /  30.6km/h 60% 0.00in /  0mm
01:49 17.8 °F /  -7.9 °C 5.9 °F /  -14.5 °C 29.82in /  1009.7hPa West 6.0mph /  9.7km/h 21.0mph /  33.8km/h 59% 0.00in /  0mm
01:54 18.0 °F /  -7.8 °C 6.1 °F /  -14.4 °C 29.82in /  1009.7hPa SW 4.0mph /  6.4km/h 22.0mph /  35.4km/h 59% 0.00in /  0mm
01:59 18.1 °F /  -7.7 °C 6.5 °F /  -14.2 °C 29.82in /  1009.7hPa West 9.0mph /  14.5km/h 21.0mph /  33.8km/h 60% 0.00in /  0mm
02:09 18.3 °F /  -7.6 °C 6.7 °F /  -14.1 °C 29.84in /  1010.4hPa WSW 7.0mph /  11.3km/h 19.0mph /  30.6km/h 60% 0.00in /  0mm
02:19 18.0 °F /  -7.8 °C 6.1 °F /  -14.4 °C 29.84in /  1010.4hPa SW 8.0mph /  12.9km/h 23.0mph /  37km/h 59% 0.00in /  0mm
02:24 17.9 °F /  -7.8 °C 6.0 °F /  -14.4 °C 29.84in /  1010.4hPa WSW 6.0mph /  9.7km/h 23.0mph /  37km/h 59% 0.00in /  0mm
02:29 17.8 °F /  -7.9 °C 5.9 °F /  -14.5 °C 29.84in /  1010.4hPa WSW 10.0mph /  16.1km/h 23.0mph /  37km/h 59% 0.00in /  0mm
02:34 17.6 °F /  -8 °C 6.1 °F /  -14.4 °C 29.85in /  1010.7hPa WSW 10.0mph /  16.1km/h 23.0mph /  37km/h 60% 0.00in /  0mm
02:39 17.6 °F /  -8 °C 6.1 °F /  -14.4 °C 29.85in /  1010.7hPa West 6.0mph /  9.7km/h 25.0mph /  40.2km/h 60% 0.00in /  0mm
02:44 17.6 °F /  -8 °C 6.4 °F /  -14.2 °C 29.86in /  1011.1hPa SW 8.0mph /  12.9km/h 25.0mph /  40.2km/h 61% 0.00in /  0mm
02:49 17.6 °F /  -8 °C 6.1 °F /  -14.4 °C 29.85in /  1010.7hPa WSW 11.0mph /  17.7km/h 25.0mph /  40.2km/h 60% 0.00in /  0mm
02:54 17.6 °F /  -8 °C 6.4 °F /  -14.2 °C 29.86in /  1011.1hPa WSW 13.0mph /  20.9km/h 19.0mph /  30.6km/h 61% 0.00in /  0mm
02:59 17.7 °F /  -7.9 °C 6.5 °F /  -14.2 °C 29.86in /  1011.1hPa West 8.0mph /  12.9km/h 23.0mph /  37km/h 61% 0.00in /  0mm
03:09 17.7 °F /  -7.9 °C 6.5 °F /  -14.2 °C 29.86in /  1011.1hPa WSW 15.0mph /  24.1km/h 22.0mph /  35.4km/h 61% 0.00in /  0mm
03:14 17.7 °F /  -7.9 °C 6.5 °F /  -14.2 °C 29.87in /  1011.4hPa West 7.0mph /  11.3km/h 19.0mph /  30.6km/h 61% 0.00in /  0mm
03:19 17.7 °F /  -7.9 °C 6.9 °F /  -13.9 °C 29.87in /  1011.4hPa West 9.0mph /  14.5km/h 19.0mph /  30.6km/h 62% 0.00in /  0mm
03:24 17.6 °F /  -8 °C 6.8 °F /  -14 °C 29.87in /  1011.4hPa WSW 9.0mph /  14.5km/h 21.0mph /  33.8km/h 62% 0.00in /  0mm
03:29 17.5 °F /  -8.1 °C 6.7 °F /  -14.1 °C 29.87in /  1011.4hPa WNW 10.0mph /  16.1km/h 16.0mph /  25.7km/h 62% 0.00in /  0mm
03:34 17.5 °F /  -8.1 °C 6.7 °F /  -14.1 °C 29.88in /  1011.7hPa West 8.0mph /  12.9km/h 19.0mph /  30.6km/h 62% 0.00in /  0mm
03:39 17.5 °F /  -8.1 °C 6.7 °F /  -14.1 °C 29.88in /  1011.7hPa West 9.0mph /  14.5km/h 20.0mph /  32.2km/h 62% 0.00in /  0mm
03:44 17.4 °F /  -8.1 °C 6.6 °F /  -14.1 °C 29.88in /  1011.7hPa West 9.0mph /  14.5km/h 20.0mph /  32.2km/h 62% 0.00in /  0mm
03:49 17.4 °F /  -8.1 °C 6.9 °F /  -13.9 °C 29.88in /  1011.7hPa WNW 10.0mph /  16.1km/h 14.0mph /  22.5km/h 63% 0.00in /  0mm
03:54 17.3 °F /  -8.2 °C 6.8 °F /  -14 °C 29.88in /  1011.7hPa WNW 16.0mph /  25.7km/h 19.0mph /  30.6km/h 63% 0.00in /  0mm
03:59 17.2 °F /  -8.2 °C 6.8 °F /  -14 °C 29.88in /  1011.7hPa West 8.0mph /  12.9km/h 19.0mph /  30.6km/h 63% 0.00in /  0mm
04:04 17.1 °F /  -8.3 °C 6.7 °F /  -14.1 °C 29.87in /  1011.4hPa West 9.0mph /  14.5km/h 17.0mph /  27.4km/h 63% 0.00in /  0mm
04:09 17.1 °F /  -8.3 °C 6.7 °F /  -14.1 °C 29.87in /  1011.4hPa West 8.0mph /  12.9km/h 18.0mph /  29km/h 63% 0.00in /  0mm
04:14 17.1 °F /  -8.3 °C 6.7 °F /  -14.1 °C 29.88in /  1011.7hPa West 6.0mph /  9.7km/h 17.0mph /  27.4km/h 63% 0.00in /  0mm
04:19 17.0 °F /  -8.3 °C 6.9 °F /  -13.9 °C 29.88in /  1011.7hPa SW 6.0mph /  9.7km/h 14.0mph /  22.5km/h 64% 0.00in /  0mm
04:29 17.1 °F /  -8.3 °C 6.7 °F /  -14.1 °C 29.88in /  1011.7hPa West 5.0mph /  8km/h 14.0mph /  22.5km/h 63% 0.00in /  0mm
04:39 17.2 °F /  -8.2 °C 6.8 °F /  -14 °C 29.87in /  1011.4hPa West 9.0mph /  14.5km/h 18.0mph /  29km/h 63% 0.00in /  0mm
04:44 17.1 °F /  -8.3 °C 6.7 °F /  -14.1 °C 29.87in /  1011.4hPa West 5.0mph /  8km/h 13.0mph /  20.9km/h 63% 0.00in /  0mm
04:54 17.0 °F /  -8.3 °C 6.6 °F /  -14.1 °C 29.87in /  1011.4hPa West 9.0mph /  14.5km/h 19.0mph /  30.6km/h 63% 0.00in /  0mm
04:59 17.0 °F /  -8.3 °C 6.9 °F /  -13.9 °C 29.88in /  1011.7hPa West 10.0mph /  16.1km/h 19.0mph /  30.6km/h 64% 0.00in /  0mm
05:04 16.9 °F /  -8.4 °C 6.8 °F /  -14 °C 29.88in /  1011.7hPa West 12.0mph /  19.3km/h 14.0mph /  22.5km/h 64% 0.00in /  0mm
05:09 16.8 °F /  -8.4 °C 6.7 °F /  -14.1 °C 29.88in /  1011.7hPa WSW 5.0mph /  8km/h 16.0mph /  25.7km/h 64% 0.00in /  0mm
05:14 16.8 °F /  -8.4 °C 6.7 °F /  -14.1 °C 29.88in /  1011.7hPa West 9.0mph /  14.5km/h 18.0mph /  29km/h 64% 0.00in /  0mm
05:19 16.7 °F /  -8.5 °C 6.6 °F /  -14.1 °C 29.88in /  1011.7hPa SW 17.0mph /  27.4km/h 17.0mph /  27.4km/h 64% 0.00in /  0mm
05:24 16.7 °F /  -8.5 °C 6.6 °F /  -14.1 °C 29.89in /  1012.1hPa WNW 7.0mph /  11.3km/h 22.0mph /  35.4km/h 64% 0.00in /  0mm
05:29 16.6 °F /  -8.6 °C 6.5 °F /  -14.2 °C 29.88in /  1011.7hPa West 7.0mph /  11.3km/h 22.0mph /  35.4km/h 64% 0.00in /  0mm
05:34 16.6 °F /  -8.6 °C 6.5 °F /  -14.2 °C 29.89in /  1012.1hPa West 12.0mph /  19.3km/h 17.0mph /  27.4km/h 64% 0.00in /  0mm
05:39 16.6 °F /  -8.6 °C 6.5 °F /  -14.2 °C 29.88in /  1011.7hPa West 8.0mph /  12.9km/h 20.0mph /  32.2km/h 64% 0.00in /  0mm
05:44 16.6 °F /  -8.6 °C 6.5 °F /  -14.2 °C 29.89in /  1012.1hPa West 11.0mph /  17.7km/h 20.0mph /  32.2km/h 64% 0.00in /  0mm
05:49 16.7 °F /  -8.5 °C 6.6 °F /  -14.1 °C 29.89in /  1012.1hPa West 10.0mph /  16.1km/h 18.0mph /  29km/h 64% 0.00in /  0mm
05:54 16.7 °F /  -8.5 °C 6.6 °F /  -14.1 °C 29.89in /  1012.1hPa West 9.0mph /  14.5km/h 18.0mph /  29km/h 64% 0.00in /  0mm
05:59 16.7 °F /  -8.5 °C 7.0 °F /  -13.9 °C 29.89in /  1012.1hPa West 8.0mph /  12.9km/h 18.0mph /  29km/h 65% 0.00in /  0mm
06:04 16.7 °F /  -8.5 °C 7.0 °F /  -13.9 °C 29.89in /  1012.1hPa West 10.0mph /  16.1km/h 19.0mph /  30.6km/h 65% 0.00in /  0mm
06:09 16.7 °F /  -8.5 °C 7.0 °F /  -13.9 °C 29.88in /  1011.7hPa West 6.0mph /  9.7km/h 14.0mph /  22.5km/h 65% 0.00in /  0mm
06:14 16.7 °F /  -8.5 °C 7.0 °F /  -13.9 °C 29.88in /  1011.7hPa West 9.0mph /  14.5km/h 19.0mph /  30.6km/h 65% 0.00in /  0mm
06:19 16.7 °F /  -8.5 °C 7.3 °F /  -13.7 °C 29.88in /  1011.7hPa WNW 9.0mph /  14.5km/h 19.0mph /  30.6km/h 66% 0.00in /  0mm
06:24 16.8 °F /  -8.4 °C 7.4 °F /  -13.7 °C 29.88in /  1011.7hPa West 8.0mph /  12.9km/h 16.0mph /  25.7km/h 66% 0.00in /  0mm
06:29 16.9 °F /  -8.4 °C 7.5 °F /  -13.6 °C 29.88in /  1011.7hPa WNW 9.0mph /  14.5km/h 17.0mph /  27.4km/h 66% 0.00in /  0mm
06:34 17.0 °F /  -8.3 °C 7.3 °F /  -13.7 °C 29.88in /  1011.7hPa WNW 12.0mph /  19.3km/h 17.0mph /  27.4km/h 65% 0.00in /  0mm
06:39 17.0 °F /  -8.3 °C 7.3 °F /  -13.7 °C 29.88in /  1011.7hPa West 6.0mph /  9.7km/h 21.0mph /  33.8km/h 65% 0.00in /  0mm
06:44 17.0 °F /  -8.3 °C 7.3 °F /  -13.7 °C 29.88in /  1011.7hPa West 10.0mph /  16.1km/h 21.0mph /  33.8km/h 65% 0.00in /  0mm
06:49 17.0 °F /  -8.3 °C 7.3 °F /  -13.7 °C 29.89in /  1012.1hPa West 11.0mph /  17.7km/h 21.0mph /  33.8km/h 65% 0.00in /  0mm
06:54 17.0 °F /  -8.3 °C 7.3 °F /  -13.7 °C 29.88in /  1011.7hPa West 12.0mph /  19.3km/h 22.0mph /  35.4km/h 65% 0.00in /  0mm
06:59 16.9 °F /  -8.4 °C 7.2 °F /  -13.8 °C 29.88in /  1011.7hPa WNW 10.0mph /  16.1km/h 22.0mph /  35.4km/h 65% 0.00in /  0mm
07:04 16.9 °F /  -8.4 °C 6.8 °F /  -14 °C 29.88in /  1011.7hPa WNW 9.0mph /  14.5km/h 16.0mph /  25.7km/h 64% 0.00in /  0mm
07:09 17.0 °F /  -8.3 °C 7.3 °F /  -13.7 °C 29.89in /  1012.1hPa WNW 9.0mph /  14.5km/h 18.0mph /  29km/h 65% 0.00in /  0mm
07:14 17.0 °F /  -8.3 °C 7.3 °F /  -13.7 °C 29.89in /  1012.1hPa NW 9.0mph /  14.5km/h 17.0mph /  27.4km/h 65% 0.00in /  0mm
07:19 17.1 °F /  -8.3 °C 7.3 °F /  -13.7 °C 29.90in /  1012.4hPa West 9.0mph /  14.5km/h 17.0mph /  27.4km/h 65% 0.00in /  0mm
07:24 17.0 °F /  -8.3 °C 7.3 °F /  -13.7 °C 29.90in /  1012.4hPa West 9.0mph /  14.5km/h 17.0mph /  27.4km/h 65% 0.00in /  0mm
07:29 17.0 °F /  -8.3 °C 7.3 °F /  -13.7 °C 29.90in /  1012.4hPa West 17.0mph /  27.4km/h 17.0mph /  27.4km/h 65% 0.00in /  0mm
07:34 17.0 °F /  -8.3 °C 7.3 °F /  -13.7 °C 29.90in /  1012.4hPa WSW 6.0mph /  9.7km/h 16.0mph /  25.7km/h 65% 0.00in /  0mm
07:39 17.1 °F /  -8.3 °C 7.3 °F /  -13.7 °C 29.90in /  1012.4hPa WNW 10.0mph /  16.1km/h 16.0mph /  25.7km/h 65% 0.00in /  0mm
07:44 17.1 °F /  -8.3 °C 7.3 °F /  -13.7 °C 29.90in /  1012.4hPa WNW 8.0mph /  12.9km/h 14.0mph /  22.5km/h 65% 0.00in /  0mm
07:49 17.1 °F /  -8.3 °C 7.3 °F /  -13.7 °C 29.91in /  1012.8hPa WSW 7.0mph /  11.3km/h 13.0mph /  20.9km/h 65% 0.00in /  0mm
07:54 17.1 °F /  -8.3 °C 7.3 °F /  -13.7 °C 29.91in /  1012.8hPa WNW 8.0mph /  12.9km/h 15.0mph /  24.1km/h 65% 0.00in /  0mm
07:59 17.2 °F /  -8.2 °C 7.4 °F /  -13.7 °C 29.91in /  1012.8hPa West 8.0mph /  12.9km/h 15.0mph /  24.1km/h 65% 0.00in /  0mm
08:04 17.3 °F /  -8.2 °C 7.5 °F /  -13.6 °C 29.91in /  1012.8hPa West 7.0mph /  11.3km/h 18.0mph /  29km/h 65% 0.00in /  0mm
08:09 17.3 °F /  -8.2 °C 7.2 °F /  -13.8 °C 29.91in /  1012.8hPa West 7.0mph /  11.3km/h 18.0mph /  29km/h 64% 0.00in /  0mm
08:14 17.4 °F /  -8.1 °C 7.3 °F /  -13.7 °C 29.91in /  1012.8hPa WSW 12.0mph /  19.3km/h 15.0mph /  24.1km/h 64% 0.00in /  0mm
08:19 17.5 °F /  -8.1 °C 7.4 °F /  -13.7 °C 29.91in /  1012.8hPa West 3.0mph /  4.8km/h 18.0mph /  29km/h 64% 0.00in /  0mm
08:24 17.5 °F /  -8.1 °C 7.4 °F /  -13.7 °C 29.91in /  1012.8hPa West 8.0mph /  12.9km/h 19.0mph /  30.6km/h 64% 0.00in /  0mm
08:29 17.6 °F /  -8 °C 7.5 °F /  -13.6 °C 29.91in /  1012.8hPa WNW 8.0mph /  12.9km/h 19.0mph /  30.6km/h 64% 0.00in /  0mm
08:34 17.6 °F /  -8 °C 7.1 °F /  -13.8 °C 29.91in /  1012.8hPa SW 13.0mph /  20.9km/h 21.0mph /  33.8km/h 63% 0.00in /  0mm
08:39 17.6 °F /  -8 °C 7.1 °F /  -13.8 °C 29.91in /  1012.8hPa NNW 10.0mph /  16.1km/h 20.0mph /  32.2km/h 63% 0.00in /  0mm
08:44 17.7 °F /  -7.9 °C 7.2 °F /  -13.8 °C 29.91in /  1012.8hPa NW 12.0mph /  19.3km/h 14.0mph /  22.5km/h 63% 0.00in /  0mm
08:49 17.7 °F /  -7.9 °C 7.2 °F /  -13.8 °C 29.91in /  1012.8hPa WSW 10.0mph /  16.1km/h 13.0mph /  20.9km/h 63% 0.00in /  0mm
08:54 17.7 °F /  -7.9 °C 7.2 °F /  -13.8 °C 29.91in /  1012.8hPa WNW 12.0mph /  19.3km/h 14.0mph /  22.5km/h 63% 0.00in /  0mm
08:59 17.7 °F /  -7.9 °C 7.2 °F /  -13.8 °C 29.91in /  1012.8hPa West 8.0mph /  12.9km/h 16.0mph /  25.7km/h 63% 0.00in /  0mm
09:04 17.8 °F /  -7.9 °C 7.3 °F /  -13.7 °C 29.91in /  1012.8hPa WNW 8.0mph /  12.9km/h 16.0mph /  25.7km/h 63% 0.00in /  0mm
09:09 17.9 °F /  -7.8 °C 7.4 °F /  -13.7 °C 29.91in /  1012.8hPa WNW 7.0mph /  11.3km/h 16.0mph /  25.7km/h 63% 0.00in /  0mm
09:14 17.9 °F /  -7.8 °C 7.4 °F /  -13.7 °C 29.92in /  1013.1hPa WNW 7.0mph /  11.3km/h 16.0mph /  25.7km/h 63% 0.00in /  0mm
09:19 17.8 °F /  -7.9 °C 7.3 °F /  -13.7 °C 29.92in /  1013.1hPa WNW 4.0mph /  6.4km/h 18.0mph /  29km/h 63% 0.00in /  0mm
09:24 17.9 °F /  -7.8 °C 7.8 °F /  -13.4 °C 29.92in /  1013.1hPa WNW 9.0mph /  14.5km/h 18.0mph /  29km/h 64% 0.00in /  0mm
09:29 18.0 °F /  -7.8 °C 8.2 °F /  -13.2 °C 29.92in /  1013.1hPa WNW 9.0mph /  14.5km/h 14.0mph /  22.5km/h 65% 0.00in /  0mm
09:34 18.1 °F /  -7.7 °C 8.3 °F /  -13.2 °C 29.92in /  1013.1hPa West 8.0mph /  12.9km/h 14.0mph /  22.5km/h 65% 0.00in /  0mm
09:39 18.0 °F /  -7.8 °C 8.2 °F /  -13.2 °C 29.92in /  1013.1hPa West 8.0mph /  12.9km/h 16.0mph /  25.7km/h 65% 0.00in /  0mm
09:44 18.2 °F /  -7.7 °C 8.7 °F /  -12.9 °C 29.93in /  1013.4hPa West 9.0mph /  14.5km/h 17.0mph /  27.4km/h 66% 0.00in /  0mm
09:49 18.4 °F /  -7.6 °C 8.6 °F /  -13 °C 29.93in /  1013.4hPa WNW 7.0mph /  11.3km/h 16.0mph /  25.7km/h 65% 0.00in /  0mm
09:54 18.3 °F /  -7.6 °C 8.8 °F /  -12.9 °C 29.93in /  1013.4hPa West 6.0mph /  9.7km/h 15.0mph /  24.1km/h 66% 0.00in /  0mm
09:59 18.5 °F /  -7.5 °C 8.7 °F /  -12.9 °C 29.93in /  1013.4hPa WSW 11.0mph /  17.7km/h 16.0mph /  25.7km/h 65% 0.00in /  0mm
10:04 18.6 °F /  -7.4 °C 8.8 °F /  -12.9 °C 29.94in /  1013.8hPa West 4.0mph /  6.4km/h 15.0mph /  24.1km/h 65% 0.00in /  0mm
10:09 18.9 °F /  -7.3 °C 9.4 °F /  -12.6 °C 29.94in /  1013.8hPa West 8.0mph /  12.9km/h 15.0mph /  24.1km/h 66% 0.00in /  0mm
10:14 19.1 °F /  -7.2 °C 9.3 °F /  -12.6 °C 29.94in /  1013.8hPa WNW 8.0mph /  12.9km/h 12.0mph /  19.3km/h 65% 0.00in /  0mm
10:19 19.3 °F /  -7.1 °C 9.4 °F /  -12.6 °C 29.93in /  1013.4hPa West 5.0mph /  8km/h 15.0mph /  24.1km/h 65% 0.00in /  0mm
10:24 19.5 °F /  -6.9 °C 9.3 °F /  -12.6 °C 29.93in /  1013.4hPa WSW 9.0mph /  14.5km/h 15.0mph /  24.1km/h 64% 0.00in /  0mm
10:29 19.5 °F /  -6.9 °C 9.3 °F /  -12.6 °C 29.93in /  1013.4hPa WSW 8.0mph /  12.9km/h 13.0mph /  20.9km/h 64% 0.00in /  0mm
10:34 19.8 °F /  -6.8 °C 9.9 °F /  -12.3 °C 29.93in /  1013.4hPa SW 6.0mph /  9.7km/h 11.0mph /  17.7km/h 65% 0.00in /  0mm
10:39 20.1 °F /  -6.6 °C 9.9 °F /  -12.3 °C 29.93in /  1013.4hPa West 6.0mph /  9.7km/h 13.0mph /  20.9km/h 64% 0.00in /  0mm
10:44 20.9 °F /  -6.2 °C 11.0 °F /  -11.7 °C 29.93in /  1013.4hPa West 6.0mph /  9.7km/h 15.0mph /  24.1km/h 65% 0.00in /  0mm
10:49 20.6 °F /  -6.3 °C 10.0 °F /  -12.2 °C 29.93in /  1013.4hPa West 8.0mph /  12.9km/h 18.0mph /  29km/h 63% 0.00in /  0mm
10:54 20.4 °F /  -6.4 °C 10.1 °F /  -12.2 °C 29.93in /  1013.4hPa West 9.0mph /  14.5km/h 18.0mph /  29km/h 64% 0.00in /  0mm
10:59 20.5 °F /  -6.4 °C 10.6 °F /  -11.9 °C 29.92in /  1013.1hPa West 8.0mph /  12.9km/h 15.0mph /  24.1km/h 65% 0.00in /  0mm
11:04 20.4 °F /  -6.4 °C 10.5 °F /  -11.9 °C 29.92in /  1013.1hPa West 6.0mph /  9.7km/h 14.0mph /  22.5km/h 65% 0.00in /  0mm
11:09 20.3 °F /  -6.5 °C 10.4 °F /  -12 °C 29.92in /  1013.1hPa West 8.0mph /  12.9km/h 14.0mph /  22.5km/h 65% 0.00in /  0mm
11:14 20.4 °F /  -6.4 °C 10.1 °F /  -12.2 °C 29.92in /  1013.1hPa WSW 7.0mph /  11.3km/h 15.0mph /  24.1km/h 64% 0.00in /  0mm
11:19 20.7 °F /  -6.3 °C 10.4 °F /  -12 °C 29.93in /  1013.4hPa WNW 9.0mph /  14.5km/h 15.0mph /  24.1km/h 64% 0.00in /  0mm
11:24 20.7 °F /  -6.3 °C 10.8 °F /  -11.8 °C 29.92in /  1013.1hPa West 6.0mph /  9.7km/h 15.0mph /  24.1km/h 65% 0.00in /  0mm
11:29 20.7 °F /  -6.3 °C 10.4 °F /  -12 °C 29.92in /  1013.1hPa West 4.0mph /  6.4km/h 11.0mph /  17.7km/h 64% 0.00in /  0mm
11:34 20.7 °F /  -6.3 °C 10.4 °F /  -12 °C 29.92in /  1013.1hPa West 7.0mph /  11.3km/h 10.0mph /  16.1km/h 64% 0.00in /  0mm
11:39 20.8 °F /  -6.2 °C 10.5 °F /  -11.9 °C 29.92in /  1013.1hPa WNW 8.0mph /  12.9km/h 12.0mph /  19.3km/h 64% 0.00in /  0mm
11:44 20.9 °F /  -6.2 °C 9.9 °F /  -12.3 °C 29.91in /  1012.8hPa West 7.0mph /  11.3km/h 15.0mph /  24.1km/h 62% 0.00in /  0mm
11:49 21.1 °F /  -6.1 °C 10.8 °F /  -11.8 °C 29.92in /  1013.1hPa West 7.0mph /  11.3km/h 16.0mph /  25.7km/h 64% 0.00in /  0mm
11:54 21.1 °F /  -6.1 °C 10.5 °F /  -11.9 °C 29.91in /  1012.8hPa West 6.0mph /  9.7km/h 16.0mph /  25.7km/h 63% 0.00in /  0mm
11:59 21.1 °F /  -6.1 °C 10.8 °F /  -11.8 °C 29.91in /  1012.8hPa West 7.0mph /  11.3km/h 15.0mph /  24.1km/h 64% 0.00in /  0mm
12:04 21.0 °F /  -6.1 °C 11.1 °F /  -11.6 °C 29.91in /  1012.8hPa WSW 9.0mph /  14.5km/h 14.0mph /  22.5km/h 65% 0.00in /  0mm
12:09 20.8 °F /  -6.2 °C 11.6 °F /  -11.3 °C 29.91in /  1012.8hPa SW 10.0mph /  16.1km/h 15.0mph /  24.1km/h 67% 0.00in /  0mm
12:14 21.0 °F /  -6.1 °C 12.4 °F /  -10.9 °C 29.91in /  1012.8hPa West 7.0mph /  11.3km/h 15.0mph /  24.1km/h 69% 0.00in /  0mm
12:19 21.1 °F /  -6.1 °C 12.8 °F /  -10.7 °C 29.91in /  1012.8hPa West 6.0mph /  9.7km/h 13.0mph /  20.9km/h 70% 0.00in /  0mm
12:24 21.0 °F /  -6.1 °C 13.1 °F /  -10.5 °C 29.91in /  1012.8hPa West 6.0mph /  9.7km/h 13.0mph /  20.9km/h 71% 0.00in /  0mm
12:29 20.6 °F /  -6.3 °C 12.4 °F /  -10.9 °C 29.91in /  1012.8hPa West 7.0mph /  11.3km/h 14.0mph /  22.5km/h 70% 0.00in /  0mm
12:34 20.6 °F /  -6.3 °C 12.4 °F /  -10.9 °C 29.90in /  1012.4hPa WSW 10.0mph /  16.1km/h 15.0mph /  24.1km/h 70% 0.00in /  0mm
12:39 20.6 °F /  -6.3 °C 12.4 °F /  -10.9 °C 29.90in /  1012.4hPa West 7.0mph /  11.3km/h 17.0mph /  27.4km/h 70% 0.00in /  0mm
12:44 20.7 °F /  -6.3 °C 12.8 °F /  -10.7 °C 29.90in /  1012.4hPa West 3.0mph /  4.8km/h 10.0mph /  16.1km/h 71% 0.00in /  0mm
12:49 20.6 °F /  -6.3 °C 12.4 °F /  -10.9 °C 29.90in /  1012.4hPa West 6.0mph /  9.7km/h 13.0mph /  20.9km/h 70% 0.00in /  0mm
12:54 20.5 °F /  -6.4 °C 12.6 °F /  -10.8 °C 29.90in /  1012.4hPa West 8.0mph /  12.9km/h 18.0mph /  29km/h 71% 0.00in /  0mm
12:59 20.2 °F /  -6.6 °C 12.3 °F /  -10.9 °C 29.90in /  1012.4hPa West 11.0mph /  17.7km/h 15.0mph /  24.1km/h 71% 0.00in /  0mm
13:04 20.2 °F /  -6.6 °C 12.6 °F /  -10.8 °C 29.90in /  1012.4hPa West 10.0mph /  16.1km/h 11.0mph /  17.7km/h 72% 0.00in /  0mm
13:09 20.4 °F /  -6.4 °C 13.4 °F /  -10.3 °C 29.90in /  1012.4hPa West 6.0mph /  9.7km/h 10.0mph /  16.1km/h 74% 0.00in /  0mm
13:14 20.1 °F /  -6.6 °C 12.8 °F /  -10.7 °C 29.89in /  1012.1hPa West 7.0mph /  11.3km/h 15.0mph /  24.1km/h 73% 0.00in /  0mm
13:19 20.0 °F /  -6.7 °C 13.3 °F /  -10.4 °C 29.89in /  1012.1hPa West 7.0mph /  11.3km/h 15.0mph /  24.1km/h 75% 0.00in /  0mm
13:24 19.9 °F /  -6.7 °C 13.6 °F /  -10.2 °C 29.89in /  1012.1hPa West 6.0mph /  9.7km/h 13.0mph /  20.9km/h 76% 0.00in /  0mm
13:29 20.1 °F /  -6.6 °C 14.3 °F /  -9.8 °C 29.89in /  1012.1hPa West 6.0mph /  9.7km/h 11.0mph /  17.7km/h 78% 0.00in /  0mm
13:34 19.9 °F /  -6.7 °C 13.9 °F /  -10.1 °C 29.89in /  1012.1hPa West 6.0mph /  9.7km/h 12.0mph /  19.3km/h 77% 0.00in /  0mm
13:44 20.1 °F /  -6.6 °C 14.9 °F /  -9.5 °C 29.88in /  1011.7hPa West 5.0mph /  8km/h 8.0mph /  12.9km/h 80% 0.00in /  0mm
13:49 19.9 °F /  -6.7 °C 14.1 °F /  -9.9 °C 29.88in /  1011.7hPa WSW 6.0mph /  9.7km/h 11.0mph /  17.7km/h 78% 0.00in /  0mm
13:54 20.0 °F /  -6.7 °C 14.5 °F /  -9.7 °C 29.88in /  1011.7hPa West 5.0mph /  8km/h 11.0mph /  17.7km/h 79% 0.00in /  0mm
13:59 19.9 °F /  -6.7 °C 14.1 °F /  -9.9 °C 29.88in /  1011.7hPa West 5.0mph /  8km/h 11.0mph /  17.7km/h 78% 0.00in /  0mm
14:04 19.9 °F /  -6.7 °C 14.4 °F /  -9.8 °C 29.88in /  1011.7hPa West 5.0mph /  8km/h 11.0mph /  17.7km/h 79% 0.00in /  0mm
14:14 19.7 °F /  -6.8 °C 14.2 °F /  -9.9 °C 29.88in /  1011.7hPa West 3.0mph /  4.8km/h 9.0mph /  14.5km/h 79% 0.00in /  0mm
14:19 19.9 °F /  -6.7 °C 15.0 °F /  -9.4 °C 29.88in /  1011.7hPa West 1.0mph /  1.6km/h 7.0mph /  11.3km/h 81% 0.00in /  0mm
14:24 19.8 °F /  -6.8 °C 14.9 °F /  -9.5 °C 29.89in /  1012.1hPa West 4.0mph /  6.4km/h 10.0mph /  16.1km/h 81% 0.00in /  0mm
14:29 19.6 °F /  -6.9 °C 15.0 °F /  -9.4 °C 29.89in /  1012.1hPa WSW 5.0mph /  8km/h 12.0mph /  19.3km/h 82% 0.00in /  0mm
14:34 19.7 °F /  -6.8 °C 15.1 °F /  -9.4 °C 29.89in /  1012.1hPa West 5.0mph /  8km/h 12.0mph /  19.3km/h 82% 0.00in /  0mm
14:39 19.7 °F /  -6.8 °C 15.4 °F /  -9.2 °C 29.89in /  1012.1hPa West 4.0mph /  6.4km/h 10.0mph /  16.1km/h 83% 0.00in /  0mm
14:44 19.8 °F /  -6.8 °C 15.5 °F /  -9.2 °C 29.89in /  1012.1hPa SW 4.0mph /  6.4km/h 8.0mph /  12.9km/h 83% 0.00in /  0mm
14:49 19.7 °F /  -6.8 °C 15.4 °F /  -9.2 °C 29.89in /  1012.1hPa West 3.0mph /  4.8km/h 9.0mph /  14.5km/h 83% 0.00in /  0mm
14:54 19.7 °F /  -6.8 °C 15.4 °F /  -9.2 °C 29.90in /  1012.4hPa West 3.0mph /  4.8km/h 8.0mph /  12.9km/h 83% 0.00in /  0mm
14:59 19.7 °F /  -6.8 °C 15.4 °F /  -9.2 °C 29.90in /  1012.4hPa WSW 4.0mph /  6.4km/h 8.0mph /  12.9km/h 83% 0.00in /  0mm
15:04 19.7 °F /  -6.8 °C 15.4 °F /  -9.2 °C 29.90in /  1012.4hPa WSW 4.0mph /  6.4km/h 8.0mph /  12.9km/h 83% 0.00in /  0mm
15:09 19.6 °F /  -6.9 °C 15.3 °F /  -9.3 °C 29.90in /  1012.4hPa West 2.0mph /  3.2km/h 6.0mph /  9.7km/h 83% 0.00in /  0mm
15:14 19.7 °F /  -6.8 °C 15.6 °F /  -9.1 °C 29.90in /  1012.4hPa WNW 2.0mph /  3.2km/h 7.0mph /  11.3km/h 84% 0.00in /  0mm
15:19 19.7 °F /  -6.8 °C 15.4 °F /  -9.2 °C 29.90in /  1012.4hPa WSW 3.0mph /  4.8km/h 6.0mph /  9.7km/h 83% 0.00in /  0mm
15:24 19.7 °F /  -6.8 °C 15.4 °F /  -9.2 °C 29.90in /  1012.4hPa WSW 2.0mph /  3.2km/h 4.0mph /  6.4km/h 83% 0.00in /  0mm
15:29 19.7 °F /  -6.8 °C 15.6 °F /  -9.1 °C 29.89in /  1012.1hPa WSW 2.0mph /  3.2km/h 6.0mph /  9.7km/h 84% 0.00in /  0mm
15:34 19.6 °F /  -6.9 °C 15.6 °F /  -9.1 °C 29.90in /  1012.4hPa SW 3.0mph /  4.8km/h 7.0mph /  11.3km/h 84% 0.00in /  0mm
15:39 19.6 °F /  -6.9 °C 15.3 °F /  -9.3 °C 29.90in /  1012.4hPa WSW 3.0mph /  4.8km/h 7.0mph /  11.3km/h 83% 0.00in /  0mm
15:44 19.6 °F /  -6.9 °C 15.3 °F /  -9.3 °C 29.89in /  1012.1hPa WSW 3.0mph /  4.8km/h 6.0mph /  9.7km/h 83% 0.00in /  0mm
15:49 19.6 °F /  -6.9 °C 15.3 °F /  -9.3 °C 29.90in /  1012.4hPa West 2.0mph /  3.2km/h 5.0mph /  8km/h 83% 0.00in /  0mm
15:54 19.6 °F /  -6.9 °C 15.6 °F /  -9.1 °C 29.90in /  1012.4hPa West 3.0mph /  4.8km/h 5.0mph /  8km/h 84% 0.00in /  0mm
15:59 19.6 °F /  -6.9 °C 15.6 °F /  -9.1 °C 29.90in /  1012.4hPa West 3.0mph /  4.8km/h 5.0mph /  8km/h 84% 0.00in /  0mm
16:04 19.6 °F /  -6.9 °C 15.6 °F /  -9.1 °C 29.90in /  1012.4hPa West 2.0mph /  3.2km/h 5.0mph /  8km/h 84% 0.00in /  0mm
16:09 19.6 °F /  -6.9 °C 15.6 °F /  -9.1 °C 29.90in /  1012.4hPa West 3.0mph /  4.8km/h 10.0mph /  16.1km/h 84% 0.00in /  0mm
16:14 19.5 °F /  -6.9 °C 15.2 °F /  -9.3 °C 29.90in /  1012.4hPa West 4.0mph /  6.4km/h 10.0mph /  16.1km/h 83% 0.00in /  0mm
16:19 19.5 °F /  -6.9 °C 15.2 °F /  -9.3 °C 29.90in /  1012.4hPa South 3.0mph /  4.8km/h 6.0mph /  9.7km/h 83% 0.00in /  0mm
16:24 19.4 °F /  -7 °C 15.1 °F /  -9.4 °C 29.90in /  1012.4hPa WNW 2.0mph /  3.2km/h 8.0mph /  12.9km/h 83% 0.00in /  0mm
16:29 19.4 °F /  -7 °C 15.4 °F /  -9.2 °C 29.89in /  1012.1hPa SW 5.0mph /  8km/h 8.0mph /  12.9km/h 84% 0.00in /  0mm
16:34 19.4 °F /  -7 °C 15.4 °F /  -9.2 °C 29.89in /  1012.1hPa WSW 4.0mph /  6.4km/h 8.0mph /  12.9km/h 84% 0.00in /  0mm
16:39 19.3 °F /  -7.1 °C 15.3 °F /  -9.3 °C 29.89in /  1012.1hPa SW 5.0mph /  8km/h 8.0mph /  12.9km/h 84% 0.00in /  0mm
16:44 19.2 °F /  -7.1 °C 15.2 °F /  -9.3 °C 29.88in /  1011.7hPa WSW 4.0mph /  6.4km/h 7.0mph /  11.3km/h 84% 0.00in /  0mm
16:49 19.2 °F /  -7.1 °C 15.4 °F /  -9.2 °C 29.89in /  1012.1hPa WSW 5.0mph /  8km/h 6.0mph /  9.7km/h 85% 0.00in /  0mm
16:54 19.1 °F /  -7.2 °C 15.3 °F /  -9.3 °C 29.89in /  1012.1hPa WSW 3.0mph /  4.8km/h 6.0mph /  9.7km/h 85% 0.00in /  0mm
16:59 19.0 °F /  -7.2 °C 15.5 °F /  -9.2 °C 29.89in /  1012.1hPa Calm   4.0mph /  6.4km/h 86% 0.00in /  0mm
17:04 19.1 °F /  -7.2 °C 15.6 °F /  -9.1 °C 29.89in /  1012.1hPa West 2.0mph /  3.2km/h 4.0mph /  6.4km/h 86% 0.00in /  0mm
17:09 19.1 °F /  -7.2 °C 15.6 °F /  -9.1 °C 29.89in /  1012.1hPa WSW 2.0mph /  3.2km/h 5.0mph /  8km/h 86% 0.00in /  0mm
17:14 19.1 °F /  -7.2 °C 15.6 °F /  -9.1 °C 29.89in /  1012.1hPa WSW 3.0mph /  4.8km/h 8.0mph /  12.9km/h 86% 0.00in /  0mm
17:19 19.0 °F /  -7.2 °C 15.5 °F /  -9.2 °C 29.89in /  1012.1hPa WSW 4.0mph /  6.4km/h 8.0mph /  12.9km/h 86% 0.00in /  0mm
17:24 18.9 °F /  -7.3 °C 15.4 °F /  -9.2 °C 29.89in /  1012.1hPa WSW 4.0mph /  6.4km/h 9.0mph /  14.5km/h 86% 0.00in /  0mm
17:29 18.8 °F /  -7.3 °C 15.3 °F /  -9.3 °C 29.89in /  1012.1hPa WSW 4.0mph /  6.4km/h 9.0mph /  14.5km/h 86% 0.00in /  0mm
17:34 18.8 °F /  -7.3 °C 15.3 °F /  -9.3 °C 29.89in /  1012.1hPa WSW 3.0mph /  4.8km/h 8.0mph /  12.9km/h 86% 0.00in /  0mm
17:39 18.6 °F /  -7.4 °C 15.4 °F /  -9.2 °C 29.89in /  1012.1hPa SW 4.0mph /  6.4km/h 8.0mph /  12.9km/h 87% 0.00in /  0mm
17:44 18.6 °F /  -7.4 °C 15.4 °F /  -9.2 °C 29.89in /  1012.1hPa West 4.0mph /  6.4km/h 8.0mph /  12.9km/h 87% 0.00in /  0mm
17:49 18.5 °F /  -7.5 °C 15.5 °F /  -9.2 °C 29.89in /  1012.1hPa SW 2.0mph /  3.2km/h 6.0mph /  9.7km/h 88% 0.00in /  0mm
17:54 18.6 °F /  -7.4 °C 15.6 °F /  -9.1 °C 29.89in /  1012.1hPa WSW 3.0mph /  4.8km/h 4.0mph /  6.4km/h 88% 0.00in /  0mm
17:59 18.6 °F /  -7.4 °C 15.6 °F /  -9.1 °C 29.89in /  1012.1hPa WSW 1.0mph /  1.6km/h 4.0mph /  6.4km/h 88% 0.00in /  0mm
18:04 18.7 °F /  -7.4 °C 15.7 °F /  -9.1 °C 29.90in /  1012.4hPa WNW 2.0mph /  3.2km/h 5.0mph /  8km/h 88% 0.00in /  0mm
18:09 18.7 °F /  -7.4 °C 15.7 °F /  -9.1 °C 29.90in /  1012.4hPa WNW 3.0mph /  4.8km/h 5.0mph /  8km/h 88% 0.00in /  0mm
18:14 18.7 °F /  -7.4 °C 16.0 °F /  -8.9 °C 29.90in /  1012.4hPa WNW 2.0mph /  3.2km/h 5.0mph /  8km/h 89% 0.00in /  0mm
18:19 18.7 °F /  -7.4 °C 15.7 °F /  -9.1 °C 29.91in /  1012.8hPa WNW 2.0mph /  3.2km/h 6.0mph /  9.7km/h 88% 0.00in /  0mm
18:24 18.5 °F /  -7.5 °C 15.5 °F /  -9.2 °C 29.91in /  1012.8hPa WNW 3.0mph /  4.8km/h 10.0mph /  16.1km/h 88% 0.00in /  0mm
18:29 18.4 °F /  -7.6 °C 15.4 °F /  -9.2 °C 29.91in /  1012.8hPa West 4.0mph /  6.4km/h 10.0mph /  16.1km/h 88% 0.00in /  0mm
18:34 18.2 °F /  -7.7 °C 15.0 °F /  -9.4 °C 29.91in /  1012.8hPa SW 7.0mph /  11.3km/h 11.0mph /  17.7km/h 87% 0.00in /  0mm
18:39 18.1 °F /  -7.7 °C 14.9 °F /  -9.5 °C 29.92in /  1013.1hPa SW 6.0mph /  9.7km/h 11.0mph /  17.7km/h 87% 0.00in /  0mm
18:44 18.0 °F /  -7.8 °C 15.0 °F /  -9.4 °C 29.91in /  1012.8hPa WSW 6.0mph /  9.7km/h 11.0mph /  17.7km/h 88% 0.00in /  0mm
18:49 18.0 °F /  -7.8 °C 15.0 °F /  -9.4 °C 29.92in /  1013.1hPa WSW 4.0mph /  6.4km/h 9.0mph /  14.5km/h 88% 0.00in /  0mm
18:54 18.0 °F /  -7.8 °C 15.0 °F /  -9.4 °C 29.91in /  1012.8hPa WSW 2.0mph /  3.2km/h 8.0mph /  12.9km/h 88% 0.00in /  0mm
18:59 17.9 °F /  -7.8 °C 14.9 °F /  -9.5 °C 29.91in /  1012.8hPa WSW 2.0mph /  3.2km/h 7.0mph /  11.3km/h 88% 0.00in /  0mm
19:04 17.9 °F /  -7.8 °C 14.9 °F /  -9.5 °C 29.92in /  1013.1hPa WSW 2.0mph /  3.2km/h 4.0mph /  6.4km/h 88% 0.00in /  0mm
19:09 17.9 °F /  -7.8 °C 14.9 °F /  -9.5 °C 29.92in /  1013.1hPa West 2.0mph /  3.2km/h 4.0mph /  6.4km/h 88% 0.00in /  0mm
19:14 18.0 °F /  -7.8 °C 15.0 °F /  -9.4 °C 29.92in /  1013.1hPa West 2.0mph /  3.2km/h 4.0mph /  6.4km/h 88% 0.00in /  0mm
19:19 18.0 °F /  -7.8 °C 15.3 °F /  -9.3 °C 29.93in /  1013.4hPa WSW 2.0mph /  3.2km/h 3.0mph /  4.8km/h 89% 0.00in /  0mm
19:24 18.0 °F /  -7.8 °C 15.3 °F /  -9.3 °C 29.93in /  1013.4hPa SW 2.0mph /  3.2km/h 4.0mph /  6.4km/h 89% 0.00in /  0mm
19:29 18.0 °F /  -7.8 °C 15.3 °F /  -9.3 °C 29.93in /  1013.4hPa SW 2.0mph /  3.2km/h 4.0mph /  6.4km/h 89% 0.00in /  0mm
19:34 18.0 °F /  -7.8 °C 15.3 °F /  -9.3 °C 29.93in /  1013.4hPa WSW 1.0mph /  1.6km/h 3.0mph /  4.8km/h 89% 0.00in /  0mm
19:39 18.0 °F /  -7.8 °C 15.3 °F /  -9.3 °C 29.93in /  1013.4hPa WSW 2.0mph /  3.2km/h 3.0mph /  4.8km/h 89% 0.00in /  0mm
19:44 18.0 °F /  -7.8 °C 15.3 °F /  -9.3 °C 29.93in /  1013.4hPa WSW 1.0mph /  1.6km/h 5.0mph /  8km/h 89% 0.00in /  0mm
19:49 18.0 °F /  -7.8 °C 15.3 °F /  -9.3 °C 29.93in /  1013.4hPa WSW 2.0mph /  3.2km/h 5.0mph /  8km/h 89% 0.00in /  0mm
19:54 18.0 °F /  -7.8 °C 15.3 °F /  -9.3 °C 29.93in /  1013.4hPa WSW 1.0mph /  1.6km/h 3.0mph /  4.8km/h 89% 0.00in /  0mm
19:59 18.0 °F /  -7.8 °C 15.3 °F /  -9.3 °C 29.93in /  1013.4hPa Calm   3.0mph /  4.8km/h 89% 0.00in /  0mm
20:04 18.0 °F /  -7.8 °C 15.3 °F /  -9.3 °C 29.93in /  1013.4hPa West 2.0mph /  3.2km/h 4.0mph /  6.4km/h 89% 0.00in /  0mm
20:09 18.0 °F /  -7.8 °C 15.0 °F /  -9.4 °C 29.93in /  1013.4hPa West 2.0mph /  3.2km/h 4.0mph /  6.4km/h 88% 0.00in /  0mm
20:14 18.1 °F /  -7.7 °C 15.1 °F /  -9.4 °C 29.93in /  1013.4hPa WSW 1.0mph /  1.6km/h 3.0mph /  4.8km/h 88% 0.00in /  0mm
20:19 18.0 °F /  -7.8 °C 15.0 °F /  -9.4 °C 29.93in /  1013.4hPa West 1.0mph /  1.6km/h 4.0mph /  6.4km/h 88% 0.00in /  0mm
20:24 18.1 °F /  -7.7 °C 15.1 °F /  -9.4 °C 29.93in /  1013.4hPa West 1.0mph /  1.6km/h 4.0mph /  6.4km/h 88% 0.00in /  0mm
20:29 18.0 °F /  -7.8 °C 15.0 °F /  -9.4 °C 29.93in /  1013.4hPa West 2.0mph /  3.2km/h 4.0mph /  6.4km/h 88% 0.00in /  0mm
20:34 17.9 °F /  -7.8 °C 14.7 °F /  -9.6 °C 29.94in /  1013.8hPa WNW 2.0mph /  3.2km/h 5.0mph /  8km/h 87% 0.00in /  0mm
20:39 17.7 °F /  -7.9 °C 14.5 °F /  -9.7 °C 29.94in /  1013.8hPa WNW 4.0mph /  6.4km/h 6.0mph /  9.7km/h 87% 0.00in /  0mm
20:44 17.5 °F /  -8.1 °C 13.8 °F /  -10.1 °C 29.94in /  1013.8hPa West 2.0mph /  3.2km/h 8.0mph /  12.9km/h 85% 0.00in /  0mm
20:49 17.3 °F /  -8.2 °C 13.6 °F /  -10.2 °C 29.94in /  1013.8hPa West 3.0mph /  4.8km/h 8.0mph /  12.9km/h 85% 0.00in /  0mm
20:54 17.1 °F /  -8.3 °C 13.1 °F /  -10.5 °C 29.94in /  1013.8hPa West 3.0mph /  4.8km/h 8.0mph /  12.9km/h 84% 0.00in /  0mm
20:59 17.1 °F /  -8.3 °C 13.1 °F /  -10.5 °C 29.94in /  1013.8hPa West 3.0mph /  4.8km/h 8.0mph /  12.9km/h 84% 0.00in /  0mm
21:04 17.1 °F /  -8.3 °C 12.8 °F /  -10.7 °C 29.94in /  1013.8hPa West 4.0mph /  6.4km/h 12.0mph /  19.3km/h 83% 0.00in /  0mm
21:09 17.2 °F /  -8.2 °C 12.9 °F /  -10.6 °C 29.94in /  1013.8hPa NW 7.0mph /  11.3km/h 10.0mph /  16.1km/h 83% 0.00in /  0mm
21:14 17.2 °F /  -8.2 °C 12.9 °F /  -10.6 °C 29.94in /  1013.8hPa West 4.0mph /  6.4km/h 10.0mph /  16.1km/h 83% 0.00in /  0mm
21:19 17.3 °F /  -8.2 °C 13.0 °F /  -10.6 °C 29.94in /  1013.8hPa WNW 6.0mph /  9.7km/h 11.0mph /  17.7km/h 83% 0.00in /  0mm
21:24 17.2 °F /  -8.2 °C 12.9 °F /  -10.6 °C 29.94in /  1013.8hPa West 4.0mph /  6.4km/h 11.0mph /  17.7km/h 83% 0.00in /  0mm
21:29 17.2 °F /  -8.2 °C 12.9 °F /  -10.6 °C 29.94in /  1013.8hPa NW 4.0mph /  6.4km/h 11.0mph /  17.7km/h 83% 0.00in /  0mm
21:34 17.2 °F /  -8.2 °C 12.9 °F /  -10.6 °C 29.95in /  1014.1hPa WNW 4.0mph /  6.4km/h 11.0mph /  17.7km/h 83% 0.00in /  0mm
21:39 17.2 °F /  -8.2 °C 13.2 °F /  -10.4 °C 29.95in /  1014.1hPa WNW 4.0mph /  6.4km/h 7.0mph /  11.3km/h 84% 0.00in /  0mm
21:44 17.1 °F /  -8.3 °C 12.8 °F /  -10.7 °C 29.95in /  1014.1hPa WNW 6.0mph /  9.7km/h 10.0mph /  16.1km/h 83% 0.00in /  0mm
21:49 17.0 °F /  -8.3 °C 12.5 °F /  -10.8 °C 29.95in /  1014.1hPa West 7.0mph /  11.3km/h 11.0mph /  17.7km/h 82% 0.00in /  0mm
21:54 16.9 °F /  -8.4 °C 12.1 °F /  -11.1 °C 29.95in /  1014.1hPa WNW 5.0mph /  8km/h 11.0mph /  17.7km/h 81% 0.00in /  0mm
21:59 16.7 °F /  -8.5 °C 11.6 °F /  -11.3 °C 29.95in /  1014.1hPa WNW 5.0mph /  8km/h 11.0mph /  17.7km/h 80% 0.00in /  0mm
22:04 16.7 °F /  -8.5 °C 11.3 °F /  -11.5 °C 29.96in /  1014.4hPa WNW 6.0mph /  9.7km/h 13.0mph /  20.9km/h 79% 0.00in /  0mm
22:09 16.6 °F /  -8.6 °C 11.2 °F /  -11.6 °C 29.96in /  1014.4hPa WNW 5.0mph /  8km/h 13.0mph /  20.9km/h 79% 0.00in /  0mm
22:14 16.4 °F /  -8.7 °C 10.7 °F /  -11.8 °C 29.96in /  1014.4hPa WNW 4.0mph /  6.4km/h 9.0mph /  14.5km/h 78% 0.00in /  0mm
22:19 16.3 °F /  -8.7 °C 10.6 °F /  -11.9 °C 29.97in /  1014.8hPa WNW 7.0mph /  11.3km/h 13.0mph /  20.9km/h 78% 0.00in /  0mm
22:24 16.1 °F /  -8.8 °C 9.6 °F /  -12.4 °C 29.97in /  1014.8hPa WNW 9.0mph /  14.5km/h 14.0mph /  22.5km/h 75% 0.00in /  0mm
22:29 16.0 °F /  -8.9 °C 9.2 °F /  -12.7 °C 29.97in /  1014.8hPa WNW 7.0mph /  11.3km/h 14.0mph /  22.5km/h 74% 0.00in /  0mm
22:34 15.7 °F /  -9.1 °C 8.6 °F /  -13 °C 29.97in /  1014.8hPa West 6.0mph /  9.7km/h 13.0mph /  20.9km/h 73% 0.00in /  0mm
22:39 15.5 °F /  -9.2 °C 8.1 °F /  -13.3 °C 29.98in /  1015.1hPa West 13.0mph /  20.9km/h 13.0mph /  20.9km/h 72% 0.00in /  0mm
22:44 15.3 °F /  -9.3 °C 7.6 °F /  -13.6 °C 29.98in /  1015.1hPa West 6.0mph /  9.7km/h 13.0mph /  20.9km/h 71% 0.00in /  0mm
22:49 15.1 °F /  -9.4 °C 7.7 °F /  -13.5 °C 29.99in /  1015.5hPa West 5.0mph /  8km/h 9.0mph /  14.5km/h 72% 0.00in /  0mm
22:54 14.9 °F /  -9.5 °C 7.8 °F /  -13.4 °C 29.99in /  1015.5hPa West 3.0mph /  4.8km/h 10.0mph /  16.1km/h 73% 0.00in /  0mm
22:59 14.8 °F /  -9.6 °C 7.7 °F /  -13.5 °C 29.99in /  1015.5hPa West 8.0mph /  12.9km/h 10.0mph /  16.1km/h 73% 0.00in /  0mm
23:04 14.8 °F /  -9.6 °C 8.0 °F /  -13.3 °C 29.99in /  1015.5hPa West 5.0mph /  8km/h 10.0mph /  16.1km/h 74% 0.00in /  0mm
23:09 14.7 °F /  -9.6 °C 8.2 °F /  -13.2 °C 29.99in /  1015.5hPa West 4.0mph /  6.4km/h 10.0mph /  16.1km/h 75% 0.00in /  0mm
23:14 14.6 °F /  -9.7 °C 8.1 °F /  -13.3 °C 29.99in /  1015.5hPa West 4.0mph /  6.4km/h 9.0mph /  14.5km/h 75% 0.00in /  0mm
23:19 14.4 °F /  -9.8 °C 7.3 °F /  -13.7 °C 29.99in /  1015.5hPa West 5.0mph /  8km/h 11.0mph /  17.7km/h 73% 0.00in /  0mm
23:24 14.3 °F /  -9.8 °C 7.2 °F /  -13.8 °C 29.99in /  1015.5hPa WNW 6.0mph /  9.7km/h 9.0mph /  14.5km/h 73% 0.00in /  0mm
23:29 14.2 °F /  -9.9 °C 6.8 °F /  -14 °C 30.00in /  1015.8hPa West 8.0mph /  12.9km/h 10.0mph /  16.1km/h 72% 0.00in /  0mm
23:34 14.1 °F /  -9.9 °C 7.0 °F /  -13.9 °C 30.00in /  1015.8hPa West 6.0mph /  9.7km/h 10.0mph /  16.1km/h 73% 0.00in /  0mm
23:39 14.0 °F /  -10 °C 7.2 °F /  -13.8 °C 30.00in /  1015.8hPa WNW 5.0mph /  8km/h 10.0mph /  16.1km/h 74% 0.00in /  0mm
23:44 13.9 °F /  -10.1 °C 6.8 °F /  -14 °C 30.00in /  1015.8hPa West 6.0mph /  9.7km/h 10.0mph /  16.1km/h 73% 0.00in /  0mm
23:49 13.9 °F /  -10.1 °C 6.8 °F /  -14 °C 30.00in /  1015.8hPa WSW 4.0mph /  6.4km/h 11.0mph /  17.7km/h 73% 0.00in /  0mm
23:54 13.8 °F /  -10.1 °C 6.7 °F /  -14.1 °C 30.01in /  1016.1hPa WSW 2.0mph /  3.2km/h 12.0mph /  19.3km/h 73% 0.00in /  0mm
23:59 13.7 °F /  -10.2 °C 6.6 °F /  -14.1 °C 30.00in /  1015.8hPa West 2.0mph /  3.2km/h 10.0mph /  16.1km/h 73% 0.00in /  0mm
Buffalo, New York, USA
Compliments of Weather Underground - 2.25 mb